Time;durP1;ratioP1;P1;durP2;ratioP2;P2;SDS_P1;SDS_P2;PMS_P1;PMS_P2;Temp;Humidity;BMP_temperature;BMP_pressure;BME280_temperature;BME280_humidity;BME280_pressure;Samples;Min_cycle;Max_cycle;Signal;HPM_P1;HPM_P2
2024/01/31 00:01:34;;;;;;;71.37;48.67;;;;;;;;;;5053490;28;20056;-59
2024/01/31 00:04:00;;;;;;;71.23;48.40;;;;;;;;;;5052464;28;20069;-59
2024/01/31 00:06:26;;;;;;;75.10;48.20;;;;;;;;;;5053215;28;20051;-59
2024/01/31 00:08:52;;;;;;;75.13;46.43;;;;;;;;;;5051267;28;20025;-60
2024/01/31 00:11:19;;;;;;;70.40;48.43;;;;;;;;;;5048282;28;20025;-60
2024/01/31 00:13:45;;;;;;;73.60;50.57;;;;;;;;;;5053072;28;20025;-59
2024/01/31 00:16:13;;;;;;;71.63;47.97;;;;;;;;;;5053485;28;20147;-59
2024/01/31 00:18:40;;;;;;;72.57;48.40;;;;;;;;;;5039377;28;20013;-59
2024/01/31 00:21:06;;;;;;;71.17;49.57;;;;;;;;;;5053107;28;20024;-59
2024/01/31 00:23:32;;;;;;;70.57;48.70;;;;;;;;;;5052972;28;20037;-60
2024/01/31 00:25:58;;;;;;;74.57;49.10;;;;;;;;;;5053080;28;20402;-60
2024/01/31 00:28:24;;;;;;;70.40;47.73;;;;;;;;;;5052676;28;20017;-60
2024/01/31 00:30:50;;;;;;;74.83;45.80;;;;;;;;;;5053276;28;20028;-59
2024/01/31 00:33:16;;;;;;;71.67;47.20;;;;;;;;;;5053628;28;20021;-60
2024/01/31 00:35:42;;;;;;;78.23;49.87;;;;;;;;;;5052037;28;20081;-59
2024/01/31 00:38:08;;;;;;;72.80;47.83;;;;;;;;;;5050670;28;20025;-59
2024/01/31 00:40:37;;;;;;;82.50;50.67;;;;;;;;;;5053117;28;20032;-59
2024/01/31 00:43:04;;;;;;;70.93;49.50;;;;;;;;;;5051518;28;20029;-59
2024/01/31 00:45:30;;;;;;;73.50;50.03;;;;;;;;;;5052544;28;20458;-60
2024/01/31 00:47:56;;;;;;;81.07;52.60;;;;;;;;;;5052618;28;20055;-59
2024/01/31 00:50:22;;;;;;;78.77;51.33;;;;;;;;;;5043103;28;20030;-60
2024/01/31 00:52:48;;;;;;;76.00;50.23;;;;;;;;;;5040177;28;20094;-59
2024/01/31 00:55:14;;;;;;;77.33;51.13;;;;;;;;;;5052563;28;20025;-59
2024/01/31 00:57:40;;;;;;;78.60;52.87;;;;;;;;;;5052276;28;20032;-60
2024/01/31 01:00:08;;;;;;;78.13;52.00;;;;;;;;;;5052457;28;20021;-60
2024/01/31 01:02:36;;;;;;;78.40;53.73;;;;;;;;;;5051106;28;20379;-60
2024/01/31 01:05:20;;;;;;;76.80;52.33;;;;;;;;;;5050977;28;20398;-60
2024/01/31 01:07:46;;;;;;;77.88;53.63;;;;;;;;;;5050847;28;20025;-60
2024/01/31 01:10:14;;;;;;;79.23;54.23;;;;;;;;;;5050999;28;20029;-60
2024/01/31 01:12:41;;;;;;;80.67;55.37;;;;;;;;;;5052588;28;20033;-60
2024/01/31 01:15:08;;;;;;;78.23;52.47;;;;;;;;;;5052459;28;20025;-60
2024/01/31 01:17:34;;;;;;;74.67;54.07;;;;;;;;;;5052181;28;20443;-60
2024/01/31 01:20:00;;;;;;;84.53;54.50;;;;;;;;;;5052159;28;20044;-61
2024/01/31 01:22:26;;;;;;;79.83;55.53;;;;;;;;;;5052144;28;20029;-60
2024/01/31 01:24:52;;;;;;;82.30;54.23;;;;;;;;;;5051749;28;20094;-60
2024/01/31 01:27:18;;;;;;;80.87;55.67;;;;;;;;;;5050603;28;20024;-60
2024/01/31 01:29:44;;;;;;;82.17;55.37;;;;;;;;;;5047920;28;20478;-60
2024/01/31 01:32:10;;;;;;;84.63;55.20;;;;;;;;;;5040471;28;20154;-60
2024/01/31 01:34:43;;;;;;;84.47;55.93;;;;;;;;;;5051903;28;20070;-60
2024/01/31 01:37:09;;;;;;;85.53;58.43;;;;;;;;;;5051622;28;20044;-60
2024/01/31 01:39:37;;;;;;;83.27;56.00;;;;;;;;;;5051854;28;20029;-60
2024/01/31 01:42:03;;;;;;;81.40;55.63;;;;;;;;;;5051681;28;20028;-60
2024/01/31 01:44:30;;;;;;;80.60;54.87;;;;;;;;;;5051711;28;20017;-60
2024/01/31 01:46:56;;;;;;;81.07;55.53;;;;;;;;;;5051562;28;20032;-61
2024/01/31 01:49:22;;;;;;;84.30;57.23;;;;;;;;;;5051694;28;20039;-60
2024/01/31 01:51:49;;;;;;;82.33;54.60;;;;;;;;;;5051769;28;20090;-60
2024/01/31 01:54:15;;;;;;;80.27;55.17;;;;;;;;;;5037463;28;20036;-62
2024/01/31 01:56:45;;;;;;;78.37;53.70;;;;;;;;;;5051384;28;20564;-60
2024/01/31 01:59:12;;;;;;;81.90;55.43;;;;;;;;;;5051444;28;20140;-60
2024/01/31 02:01:39;;;;;;;80.53;54.50;;;;;;;;;;5051633;28;20043;-60
2024/01/31 02:04:08;;;;;;;82.80;55.10;;;;;;;;;;5051229;28;20097;-60
2024/01/31 02:06:34;;;;;;;81.40;55.27;;;;;;;;;;5051322;28;20067;-60
2024/01/31 02:09:00;;;;;;;80.77;57.43;;;;;;;;;;5051439;28;20449;-60
2024/01/31 02:11:26;;;;;;;78.67;55.03;;;;;;;;;;5051408;28;20025;-60
2024/01/31 02:13:52;;;;;;;77.90;54.50;;;;;;;;;;5050228;28;20036;-61
2024/01/31 02:16:18;;;;;;;82.57;54.00;;;;;;;;;;5051201;28;20070;-60
2024/01/31 02:18:44;;;;;;;78.70;53.93;;;;;;;;;;5051240;28;20470;-59
2024/01/31 02:21:10;;;;;;;81.23;53.83;;;;;;;;;;5050512;28;20025;-60
2024/01/31 02:23:36;;;;;;;81.97;53.93;;;;;;;;;;5050660;28;20028;-60
2024/01/31 02:26:02;;;;;;;81.37;56.60;;;;;;;;;;5049918;28;20509;-60
2024/01/31 02:28:28;;;;;;;71.80;50.53;;;;;;;;;;5049919;28;20112;-60
2024/01/31 02:30:56;;;;;;;79.13;52.43;;;;;;;;;;5049686;28;20403;-60
2024/01/31 02:33:22;;;;;;;72.50;50.97;;;;;;;;;;5049254;28;20580;-60
2024/01/31 02:35:48;;;;;;;76.40;53.27;;;;;;;;;;5038991;28;20030;-60
2024/01/31 02:38:13;;;;;;;75.03;53.10;;;;;;;;;;5035909;28;20048;-60
2024/01/31 02:40:39;;;;;;;75.10;53.13;;;;;;;;;;5042635;28;20103;-60
2024/01/31 02:43:09;;;;;;;74.97;52.10;;;;;;;;;;5053723;28;20754;-60
2024/01/31 02:45:36;;;;;;;73.47;51.60;;;;;;;;;;5047044;28;20425;-60
2024/01/31 02:48:02;;;;;;;80.23;51.30;;;;;;;;;;5046407;28;20129;-60
2024/01/31 02:50:34;;;;;;;79.53;53.27;;;;;;;;;;5052238;28;20584;-60
2024/01/31 02:53:00;;;;;;;70.83;49.77;;;;;;;;;;5052368;28;20025;-60
2024/01/31 02:55:26;;;;;;;73.40;51.20;;;;;;;;;;5050701;28;20044;-60
2024/01/31 02:57:53;;;;;;;71.50;50.83;;;;;;;;;;5049018;28;20045;-60
2024/01/31 03:00:19;;;;;;;72.60;51.30;;;;;;;;;;5051119;28;20501;-60
2024/01/31 03:02:46;;;;;;;70.00;49.70;;;;;;;;;;5047774;28;20052;-60
2024/01/31 03:05:12;;;;;;;75.60;52.13;;;;;;;;;;5045509;28;20036;-60
2024/01/31 03:07:39;;;;;;;78.00;52.73;;;;;;;;;;5045702;28;20048;-60
2024/01/31 03:10:06;;;;;;;68.90;50.77;;;;;;;;;;5039906;28;20029;-60
2024/01/31 03:12:35;;;;;;;74.33;51.07;;;;;;;;;;5046651;28;20056;-60
2024/01/31 03:15:01;;;;;;;71.07;49.83;;;;;;;;;;5043677;28;20517;-60
2024/01/31 03:17:27;;;;;;;75.07;51.20;;;;;;;;;;5054296;28;20487;-60
2024/01/31 03:19:53;;;;;;;70.17;49.17;;;;;;;;;;5054461;28;20021;-60
2024/01/31 03:22:19;;;;;;;72.43;49.23;;;;;;;;;;5053076;28;20021;-60
2024/01/31 03:24:45;;;;;;;68.77;49.70;;;;;;;;;;5054504;28;20025;-60
2024/01/31 03:27:11;;;;;;;75.37;51.03;;;;;;;;;;5054144;28;20032;-60
2024/01/31 03:29:37;;;;;;;71.70;50.27;;;;;;;;;;5054489;28;20329;-60
2024/01/31 03:32:03;;;;;;;66.77;48.43;;;;;;;;;;5054153;28;20032;-60
2024/01/31 03:34:29;;;;;;;72.53;49.67;;;;;;;;;;5054427;28;20021;-60
2024/01/31 03:36:55;;;;;;;69.37;48.97;;;;;;;;;;5053975;28;20048;-60
2024/01/31 03:39:21;;;;;;;68.40;47.87;;;;;;;;;;5054346;28;20030;-60
2024/01/31 03:41:49;;;;;;;69.73;48.60;;;;;;;;;;5054440;28;20029;-60
2024/01/31 03:44:15;;;;;;;70.57;48.23;;;;;;;;;;5045617;28;20021;-60
2024/01/31 03:46:41;;;;;;;69.23;49.37;;;;;;;;;;5052607;28;20036;-60
2024/01/31 03:49:07;;;;;;;70.53;50.37;;;;;;;;;;5052463;28;20029;-60
2024/01/31 03:51:33;;;;;;;72.43;48.67;;;;;;;;;;5053986;28;20032;-60
2024/01/31 03:54:17;;;;;;;69.17;48.77;;;;;;;;;;5054107;28;20116;-60
2024/01/31 03:56:43;;;;;;;67.10;47.07;;;;;;;;;;5053655;28;20106;-60
2024/01/31 03:59:09;;;;;;;75.07;49.43;;;;;;;;;;5053931;28;20374;-60
2024/01/31 04:01:38;;;;;;;73.03;48.77;;;;;;;;;;5053638;28;20017;-61
2024/01/31 04:04:04;;;;;;;72.43;48.90;;;;;;;;;;5053619;28;20103;-60
2024/01/31 04:06:30;;;;;;;76.37;51.50;;;;;;;;;;5053929;28;20025;-60
2024/01/31 04:08:56;;;;;;;72.20;50.53;;;;;;;;;;5053447;28;20033;-60
2024/01/31 04:11:34;;;;;;;70.17;48.37;;;;;;;;;;5053573;28;20025;-60
2024/01/31 04:14:00;;;;;;;68.03;47.20;;;;;;;;;;5053474;28;20021;-60
2024/01/31 04:16:26;;;;;;;69.10;49.60;;;;;;;;;;5053525;28;20544;-60
2024/01/31 04:18:52;;;;;;;72.67;49.37;;;;;;;;;;5053149;28;20127;-60
2024/01/31 04:21:24;;;;;;;71.13;48.67;;;;;;;;;;5053529;28;20059;-60
2024/01/31 04:23:50;;;;;;;75.43;49.90;;;;;;;;;;5052067;28;20097;-60
2024/01/31 04:26:17;;;;;;;70.97;49.47;;;;;;;;;;5040905;28;20163;-60
2024/01/31 04:28:43;;;;;;;68.93;49.07;;;;;;;;;;5039581;28;20044;-60
2024/01/31 04:31:15;;;;;;;65.47;48.33;;;;;;;;;;5052703;28;20025;-60
2024/01/31 04:33:42;;;;;;;70.70;48.60;;;;;;;;;;5053396;28;20044;-60
2024/01/31 04:36:08;;;;;;;69.97;49.53;;;;;;;;;;5053251;28;20033;-60
2024/01/31 04:38:34;;;;;;;71.50;47.73;;;;;;;;;;5052972;28;20098;-60
2024/01/31 04:41:00;;;;;;;69.03;49.47;;;;;;;;;;5053063;28;20075;-60
2024/01/31 04:43:26;;;;;;;66.43;48.73;;;;;;;;;;5053366;28;20040;-60
2024/01/31 04:48:56;;;;;;;71.50;47.93;;;;;;;;;;5039974;28;20049;-60
2024/01/31 04:51:22;;;;;;;71.97;49.53;;;;;;;;;;5050778;28;20021;-59
2024/01/31 04:53:48;;;;;;;71.17;49.37;;;;;;;;;;5052834;28;20434;-60
2024/01/31 04:56:14;;;;;;;70.27;48.97;;;;;;;;;;5052588;28;20390;-59
2024/01/31 04:58:40;;;;;;;75.77;50.77;;;;;;;;;;5050752;28;20347;-59
2024/01/31 05:01:06;;;;;;;72.37;48.10;;;;;;;;;;5052537;28;20025;-60
2024/01/31 05:03:32;;;;;;;72.60;48.77;;;;;;;;;;5051955;28;20075;-60
2024/01/31 05:05:58;;;;;;;72.77;50.30;;;;;;;;;;5052508;28;20100;-60
2024/01/31 05:08:27;;;;;;;70.23;49.00;;;;;;;;;;5052333;28;20045;-59
2024/01/31 05:10:53;;;;;;;73.20;50.13;;;;;;;;;;5052608;28;20490;-59
2024/01/31 05:13:19;;;;;;;76.30;50.63;;;;;;;;;;5052414;28;20047;-59
2024/01/31 05:15:45;;;;;;;73.10;50.13;;;;;;;;;;5051009;28;20143;-60
2024/01/31 05:18:11;;;;;;;70.90;50.00;;;;;;;;;;5051018;28;20295;-60
2024/01/31 05:20:38;;;;;;;75.37;51.47;;;;;;;;;;5050939;28;20021;-59
2024/01/31 05:23:04;;;;;;;73.87;48.13;;;;;;;;;;5052243;28;20017;-60
2024/01/31 05:25:30;;;;;;;71.53;49.37;;;;;;;;;;5050728;28;20024;-60
2024/01/31 05:27:56;;;;;;;78.40;50.80;;;;;;;;;;5052278;28;20032;-60
2024/01/31 05:30:22;;;;;;;74.77;49.43;;;;;;;;;;5052059;28;20041;-60
2024/01/31 05:32:48;;;;;;;74.10;49.47;;;;;;;;;;5052276;28;20045;-60
2024/01/31 05:35:14;;;;;;;73.97;48.97;;;;;;;;;;5052385;28;20419;-60
2024/01/31 05:37:40;;;;;;;64.73;45.87;;;;;;;;;;5051795;28;20064;-60
2024/01/31 05:40:07;;;;;;;70.10;47.60;;;;;;;;;;5050647;28;20049;-60
2024/01/31 05:42:33;;;;;;;69.87;47.80;;;;;;;;;;5051881;28;20025;-60
2024/01/31 05:44:59;;;;;;;68.27;46.60;;;;;;;;;;5051865;28;20081;-59
2024/01/31 05:47:25;;;;;;;69.23;46.60;;;;;;;;;;5052005;28;20025;-59
2024/01/31 05:49:51;;;;;;;64.77;46.97;;;;;;;;;;5051879;28;20029;-60
2024/01/31 05:52:17;;;;;;;69.37;48.27;;;;;;;;;;5050432;28;20035;-60
2024/01/31 05:54:43;;;;;;;68.37;46.17;;;;;;;;;;5049473;28;20029;-60
2024/01/31 05:57:09;;;;;;;64.23;46.83;;;;;;;;;;5047770;28;20038;-60
2024/01/31 05:59:39;;;;;;;69.60;46.30;;;;;;;;;;5045122;28;20593;-60
2024/01/31 06:02:05;;;;;;;65.00;45.93;;;;;;;;;;5034889;28;20417;-60
2024/01/31 06:04:31;;;;;;;61.00;43.13;;;;;;;;;;5046272;28;20099;-60
2024/01/31 06:06:57;;;;;;;62.23;43.17;;;;;;;;;;5051451;28;20032;-60
2024/01/31 06:09:23;;;;;;;64.87;42.80;;;;;;;;;;5051609;28;20040;-60
2024/01/31 06:11:49;;;;;;;62.67;42.97;;;;;;;;;;5055755;28;20383;-60
2024/01/31 06:14:15;;;;;;;60.30;43.07;;;;;;;;;;5055867;28;20029;-60
2024/01/31 06:16:41;;;;;;;61.80;42.37;;;;;;;;;;5055570;28;20112;-59
2024/01/31 06:19:08;;;;;;;64.53;44.37;;;;;;;;;;5055902;28;20435;-59
2024/01/31 06:21:34;;;;;;;61.50;42.67;;;;;;;;;;5055581;28;20477;-59
2024/01/31 06:24:00;;;;;;;60.83;42.03;;;;;;;;;;5055516;28;20021;-59
2024/01/31 06:26:32;;;;;;;61.33;42.63;;;;;;;;;;5055656;28;20029;-59
2024/01/31 06:28:57;;;;;;;62.00;41.10;;;;;;;;;;5055351;28;20045;-59
2024/01/31 06:31:35;;;;;;;60.23;41.03;;;;;;;;;;5055228;28;20062;-60
2024/01/31 06:34:01;;;;;;;58.30;41.20;;;;;;;;;;5055494;28;20017;-60
2024/01/31 06:36:27;;;;;;;63.10;40.80;;;;;;;;;;5055087;28;20036;-60
2024/01/31 06:38:53;;;;;;;61.97;41.67;;;;;;;;;;5055459;28;20027;-60
2024/01/31 06:41:19;;;;;;;60.53;40.57;;;;;;;;;;5055268;28;20442;-61
2024/01/31 06:43:45;;;;;;;58.90;40.83;;;;;;;;;;5055214;28;20025;-60
2024/01/31 06:46:11;;;;;;;62.23;41.80;;;;;;;;;;5055181;28;20088;-60
2024/01/31 06:48:37;;;;;;;59.10;40.93;;;;;;;;;;5055204;28;20459;-61
2024/01/31 06:51:03;;;;;;;62.63;41.50;;;;;;;;;;5055258;28;20031;-60
2024/01/31 06:53:32;;;;;;;57.37;41.20;;;;;;;;;;5055136;28;20394;-60
2024/01/31 06:56:00;;;;;;;59.13;41.27;;;;;;;;;;5046589;28;20044;-60
2024/01/31 06:58:26;;;;;;;63.27;43.03;;;;;;;;;;5054626;28;20061;-60
2024/01/31 07:00:55;;;;;;;61.03;41.30;;;;;;;;;;5055133;28;20510;-60
2024/01/31 07:03:21;;;;;;;62.03;40.53;;;;;;;;;;5054633;28;20556;-60
2024/01/31 07:05:47;;;;;;;58.77;41.23;;;;;;;;;;5054801;28;20074;-60
2024/01/31 07:08:13;;;;;;;60.43;40.93;;;;;;;;;;5053637;28;20467;-60
2024/01/31 07:10:39;;;;;;;63.80;43.07;;;;;;;;;;5054722;28;20032;-59
2024/01/31 07:13:05;;;;;;;66.73;45.93;;;;;;;;;;5055048;28;20029;-60
2024/01/31 07:15:31;;;;;;;63.77;43.77;;;;;;;;;;5054482;28;20025;-60
2024/01/31 07:17:58;;;;;;;66.67;44.33;;;;;;;;;;5050998;28;20471;-60
2024/01/31 07:20:24;;;;;;;66.67;46.23;;;;;;;;;;5052538;28;20378;-59
2024/01/31 07:22:50;;;;;;;68.10;45.23;;;;;;;;;;5035489;28;20083;-60
2024/01/31 07:25:16;;;;;;;60.60;42.77;;;;;;;;;;5053851;28;20040;-60
2024/01/31 07:27:44;;;;;;;58.17;42.67;;;;;;;;;;5052772;28;20112;-60
2024/01/31 07:30:10;;;;;;;56.87;39.50;;;;;;;;;;5049972;28;20179;-59
2024/01/31 07:32:37;;;;;;;53.23;38.80;;;;;;;;;;5048358;28;20028;-60
2024/01/31 07:38:07;;;;;;;60.17;40.87;;;;;;;;;;5045191;28;20056;-60
2024/01/31 07:40:33;;;;;;;61.60;42.10;;;;;;;;;;5043817;28;20040;-60
2024/01/31 07:42:59;;;;;;;61.43;42.77;;;;;;;;;;5047542;28;20013;-60
2024/01/31 07:45:27;;;;;;;58.60;41.83;;;;;;;;;;5035494;28;20393;-60
2024/01/31 07:48:08;;;;;;;62.50;43.63;;;;;;;;;;5051999;28;20040;-60
2024/01/31 07:50:34;;;;;;;60.80;41.73;;;;;;;;;;5040165;28;20048;-60
2024/01/31 07:53:00;;;;;;;57.87;42.40;;;;;;;;;;5053979;28;20467;-61
2024/01/31 07:55:26;;;;;;;60.00;41.83;;;;;;;;;;5054081;28;20021;-60
2024/01/31 07:57:52;;;;;;;64.53;43.93;;;;;;;;;;5047956;28;20026;-60
2024/01/31 08:00:18;;;;;;;57.80;41.17;;;;;;;;;;5038922;28;20151;-61
2024/01/31 08:02:44;;;;;;;58.23;41.43;;;;;;;;;;5039342;28;20131;-73
2024/01/31 08:05:10;;;;;;;61.10;43.13;;;;;;;;;;5052584;28;20037;-72
2024/01/31 08:07:46;;;;;;;62.30;44.10;;;;;;;;;;5053792;28;20021;-73
2024/01/31 08:10:12;;;;;;;56.87;41.43;;;;;;;;;;5054081;28;20104;-73
2024/01/31 08:12:39;;;;;;;60.60;42.90;;;;;;;;;;5053771;28;20478;-73
2024/01/31 08:15:05;;;;;;;63.40;41.53;;;;;;;;;;5047031;28;20030;-73
2024/01/31 08:17:31;;;;;;;63.33;40.80;;;;;;;;;;5033883;28;20061;-72
2024/01/31 08:19:57;;;;;;;55.27;39.43;;;;;;;;;;5052447;28;20116;-72
2024/01/31 08:22:23;;;;;;;55.43;38.37;;;;;;;;;;5053814;28;20056;-72
2024/01/31 08:24:50;;;;;;;56.30;37.63;;;;;;;;;;5053387;28;20365;-73
2024/01/31 08:27:18;;;;;;;52.23;37.07;;;;;;;;;;5053588;28;20075;-73
2024/01/31 08:29:44;;;;;;;51.43;37.73;;;;;;;;;;5053327;28;20075;-72
2024/01/31 08:32:10;;;;;;;58.70;38.70;;;;;;;;;;5053108;28;20165;-72
2024/01/31 08:34:36;;;;;;;52.07;38.00;;;;;;;;;;5053042;28;20029;-72
2024/01/31 08:37:02;;;;;;;55.37;40.67;;;;;;;;;;5053194;28;20029;-72
2024/01/31 08:39:29;;;;;;;59.97;41.23;;;;;;;;;;5037610;28;20031;-72
2024/01/31 08:41:55;;;;;;;62.07;43.07;;;;;;;;;;5033399;28;20108;-72
2024/01/31 08:44:22;;;;;;;60.60;40.83;;;;;;;;;;5035605;28;20372;-72
2024/01/31 08:46:48;;;;;;;59.23;42.10;;;;;;;;;;5052323;28;20017;-72
2024/01/31 08:49:23;;;;;;;57.03;42.53;;;;;;;;;;5046757;28;20053;-72
2024/01/31 08:51:49;;;;;;;58.37;42.97;;;;;;;;;;5050937;28;20021;-72
2024/01/31 08:54:15;;;;;;;55.13;43.90;;;;;;;;;;5051741;28;20031;-72
2024/01/31 08:56:41;;;;;;;61.30;44.50;;;;;;;;;;5040670;28;20501;-73
2024/01/31 08:59:07;;;;;;;58.67;45.13;;;;;;;;;;5047871;28;20090;-71
2024/01/31 09:01:33;;;;;;;60.60;46.10;;;;;;;;;;5042127;28;20032;-72
2024/01/31 09:03:59;;;;;;;64.50;45.73;;;;;;;;;;5052600;28;20049;-73
2024/01/31 09:06:25;;;;;;;67.03;45.27;;;;;;;;;;5052669;28;20387;-72
2024/01/31 09:08:51;;;;;;;60.43;45.97;;;;;;;;;;5052587;28;20106;-65
2024/01/31 09:11:18;;;;;;;65.07;46.27;;;;;;;;;;5051430;28;20071;-62
2024/01/31 09:13:44;;;;;;;59.27;46.63;;;;;;;;;;5052719;28;20028;-58
2024/01/31 09:16:10;;;;;;;62.03;47.03;;;;;;;;;;5050389;28;20123;-62
2024/01/31 09:18:36;;;;;;;65.83;47.43;;;;;;;;;;5040654;28;20060;-62
2024/01/31 09:21:02;;;;;;;62.23;45.33;;;;;;;;;;5052317;28;20035;-63
2024/01/31 09:23:27;;;;;;;61.60;45.10;;;;;;;;;;5052309;28;20029;-63
2024/01/31 09:25:53;;;;;;;64.30;47.43;;;;;;;;;;5051834;28;20044;-67
2024/01/31 09:28:20;;;;;;;58.87;45.43;;;;;;;;;;5037759;28;20075;-63
2024/01/31 09:30:46;;;;;;;60.53;47.23;;;;;;;;;;5045423;28;20462;-68
2024/01/31 09:33:12;;;;;;;64.37;46.50;;;;;;;;;;5052689;28;20025;-71
2024/01/31 09:35:39;;;;;;;64.30;46.77;;;;;;;;;;5038930;28;20082;-66
2024/01/31 09:38:05;;;;;;;64.50;46.63;;;;;;;;;;5042922;28;20025;-70
2024/01/31 09:40:32;;;;;;;64.87;47.80;;;;;;;;;;5046687;28;20032;-69
2024/01/31 09:42:58;;;;;;;61.93;45.47;;;;;;;;;;5052051;28;20029;-63
2024/01/31 09:45:31;;;;;;;63.50;47.87;;;;;;;;;;5052051;28;20167;-66
2024/01/31 09:47:59;;;;;;;63.77;46.80;;;;;;;;;;5052234;28;20340;-64
2024/01/31 09:50:25;;;;;;;64.47;45.27;;;;;;;;;;5050521;28;20368;-66
2024/01/31 09:52:56;;;;;;;67.10;46.50;;;;;;;;;;5042828;28;20032;-60
2024/01/31 09:55:23;;;;;;;60.60;46.47;;;;;;;;;;5034274;28;20033;-59
2024/01/31 09:57:49;;;;;;;65.53;47.33;;;;;;;;;;5036946;28;20056;-61
2024/01/31 10:00:18;;;;;;;63.47;45.97;;;;;;;;;;5047552;28;20490;-61
2024/01/31 10:02:44;;;;;;;60.10;46.53;;;;;;;;;;5042050;28;20120;-59
2024/01/31 10:05:10;;;;;;;64.70;46.92;;;;;;;;;;5044019;28;20021;-61
2024/01/31 10:07:40;;;;;;;62.00;47.07;;;;;;;;;;5051996;28;20131;-54
2024/01/31 10:10:06;;;;;;;71.35;47.35;;;;;;;;;;5052091;28;20025;-69
2024/01/31 10:12:32;;;;;;;63.60;47.10;;;;;;;;;;5050579;28;20032;-62
2024/01/31 10:14:58;;;;;;;63.37;47.53;;;;;;;;;;5052012;28;20033;-57
2024/01/31 10:17:25;;;;;;;62.07;47.07;;;;;;;;;;5051671;28;20033;-70
2024/01/31 10:19:51;;;;;;;62.83;46.47;;;;;;;;;;5052040;28;20029;-72
2024/01/31 10:22:17;;;;;;;57.80;44.90;;;;;;;;;;5051592;28;20036;-61
2024/01/31 10:24:47;;;;;;;63.83;46.95;;;;;;;;;;5043475;28;20044;-72
2024/01/31 10:27:14;;;;;;;61.67;45.10;;;;;;;;;;5050065;28;20029;-71
2024/01/31 10:29:40;;;;;;;61.78;47.40;;;;;;;;;;5050278;28;20025;-74
2024/01/31 10:32:06;;;;;;;64.63;47.67;;;;;;;;;;5051406;28;20478;-68
2024/01/31 10:34:34;;;;;;;63.35;47.47;;;;;;;;;;5045451;28;20142;-58
2024/01/31 10:37:02;;;;;;;58.00;45.05;;;;;;;;;;5044438;28;20071;-73
2024/01/31 10:39:28;;;;;;;63.13;48.60;;;;;;;;;;5049964;28;20459;-47
2024/01/31 10:41:55;;;;;;;66.63;48.80;;;;;;;;;;5040692;28;20025;-56
2024/01/31 10:44:22;;;;;;;56.05;43.58;;;;;;;;;;5035593;28;20025;-60
2024/01/31 10:46:48;;;;;;;62.90;46.33;;;;;;;;;;5037980;28;20378;-60
2024/01/31 10:49:16;;;;;;;61.15;44.15;;;;;;;;;;5051482;28;20021;-63
2024/01/31 10:51:53;;;;;;;62.67;44.65;;;;;;;;;;5049483;28;20113;-65
2024/01/31 10:54:22;;;;;;;62.38;44.80;;;;;;;;;;5049543;28;20532;-62
2024/01/31 10:56:49;;;;;;;54.72;41.58;;;;;;;;;;5048838;28;20047;-63
2024/01/31 10:59:17;;;;;;;63.67;42.85;;;;;;;;;;5040308;28;20393;-66
2024/01/31 11:01:50;;;;;;;58.35;44.47;;;;;;;;;;5055422;28;20024;-58
2024/01/31 11:04:17;;;;;;;63.78;45.80;;;;;;;;;;5053471;28;20041;-63
2024/01/31 11:06:43;;;;;;;61.65;45.05;;;;;;;;;;5055029;28;20025;-61
2024/01/31 11:09:22;;;;;;;63.03;45.60;;;;;;;;;;5054875;28;20386;-60
2024/01/31 11:12:00;;;;;;;58.95;46.35;;;;;;;;;;5054235;28;20036;-63
2024/01/31 11:14:30;;;;;;;58.75;44.30;;;;;;;;;;5042936;28;20029;-59
2024/01/31 11:17:33;;;;;;;62.63;45.15;;;;;;;;;;5053066;28;20041;-63
2024/01/31 11:20:00;;;;;;;57.67;44.00;;;;;;;;;;5029408;28;20045;-54
2024/01/31 11:22:27;;;;;;;59.05;44.15;;;;;;;;;;5040405;28;20046;-65
2024/01/31 11:24:54;;;;;;;62.15;45.22;;;;;;;;;;5034367;28;20487;-53
2024/01/31 11:27:21;;;;;;;63.80;46.15;;;;;;;;;;5042115;28;20143;-62
2024/01/31 11:29:55;;;;;;;73.53;48.45;;;;;;;;;;5054687;28;20039;-55
2024/01/31 11:32:22;;;;;;;87.50;49.10;;;;;;;;;;5039724;28;20455;-62
2024/01/31 11:34:59;;;;;;;65.25;44.95;;;;;;;;;;5053835;28;20025;-64
2024/01/31 11:37:25;;;;;;;68.55;48.17;;;;;;;;;;5042432;28;20093;-61
2024/01/31 11:39:51;;;;;;;67.30;48.80;;;;;;;;;;5053072;28;20029;-60
2024/01/31 11:42:17;;;;;;;67.88;45.80;;;;;;;;;;5049713;28;20028;-56
2024/01/31 11:44:43;;;;;;;58.15;42.67;;;;;;;;;;5033045;28;20029;-64
2024/01/31 11:47:09;;;;;;;54.45;39.65;;;;;;;;;;5049330;28;20145;-59
2024/01/31 11:49:35;;;;;;;56.53;42.08;;;;;;;;;;5047717;28;20044;-63
2024/01/31 11:52:01;;;;;;;65.25;45.20;;;;;;;;;;5048945;28;20548;-65
2024/01/31 11:54:30;;;;;;;62.80;44.92;;;;;;;;;;5050643;28;20029;-64
2024/01/31 11:56:57;;;;;;;60.95;43.70;;;;;;;;;;5042408;28;20033;-64
2024/01/31 11:59:23;;;;;;;61.50;45.03;;;;;;;;;;5041713;28;20025;-64
2024/01/31 12:01:49;;;;;;;59.47;43.75;;;;;;;;;;5052537;28;20443;-64
2024/01/31 12:04:15;;;;;;;57.65;45.35;;;;;;;;;;5053577;28;20120;-64
2024/01/31 12:06:41;;;;;;;60.47;43.28;;;;;;;;;;5053581;28;20112;-64
2024/01/31 12:09:07;;;;;;;56.20;41.85;;;;;;;;;;5052443;28;20429;-64
2024/01/31 12:11:33;;;;;;;47.08;35.72;;;;;;;;;;5053663;28;20466;-64
2024/01/31 12:13:59;;;;;;;57.35;41.35;;;;;;;;;;5053602;28;20402;-65
2024/01/31 12:16:25;;;;;;;51.03;37.22;;;;;;;;;;5053589;28;20448;-64
2024/01/31 12:19:01;;;;;;;45.08;31.88;;;;;;;;;;5053406;28;20055;-65
2024/01/31 12:21:27;;;;;;;43.30;31.92;;;;;;;;;;5053495;28;20060;-64
2024/01/31 12:23:53;;;;;;;45.38;30.73;;;;;;;;;;5053801;28;20036;-64
2024/01/31 12:26:20;;;;;;;49.97;33.90;;;;;;;;;;5052167;28;20044;-64
2024/01/31 12:28:56;;;;;;;48.05;33.35;;;;;;;;;;5053359;28;20040;-63
2024/01/31 12:31:40;;;;;;;45.78;33.55;;;;;;;;;;5039877;28;20040;-64
2024/01/31 12:34:06;;;;;;;45.28;33.30;;;;;;;;;;5053353;28;20386;-63
2024/01/31 12:36:32;;;;;;;45.78;32.25;;;;;;;;;;5053149;28;20095;-63
2024/01/31 12:38:58;;;;;;;46.13;33.83;;;;;;;;;;5051788;28;20021;-63
2024/01/31 12:41:24;;;;;;;58.47;40.63;;;;;;;;;;5052966;28;20390;-64
2024/01/31 12:43:50;;;;;;;54.28;40.50;;;;;;;;;;5053286;28;20087;-63
2024/01/31 12:46:16;;;;;;;50.30;33.33;;;;;;;;;;5038763;28;20021;-63
2024/01/31 12:48:42;;;;;;;45.55;32.47;;;;;;;;;;5053265;28;20052;-64
2024/01/31 12:51:08;;;;;;;53.70;37.53;;;;;;;;;;5038798;28;20431;-63
2024/01/31 12:53:34;;;;;;;47.83;34.40;;;;;;;;;;5053306;28;20021;-64
2024/01/31 12:56:00;;;;;;;43.22;32.85;;;;;;;;;;5051170;28;20052;-63
2024/01/31 12:58:27;;;;;;;45.88;35.30;;;;;;;;;;5052315;28;20063;-64
2024/01/31 13:00:55;;;;;;;46.28;33.08;;;;;;;;;;5052688;28;20025;-63
2024/01/31 13:03:21;;;;;;;48.63;35.65;;;;;;;;;;5050933;28;20098;-63
2024/01/31 13:05:47;;;;;;;52.17;37.15;;;;;;;;;;5051054;28;20025;-64
2024/01/31 13:08:13;;;;;;;51.58;34.38;;;;;;;;;;5051374;28;20064;-64
2024/01/31 13:10:39;;;;;;;44.55;34.13;;;;;;;;;;5052513;28;20044;-64
2024/01/31 13:13:05;;;;;;;;;;;;;;;;;;5051378;28;20041;-64
2024/01/31 13:15:31;;;;;;;54.30;35.83;;;;;;;;;;5038141;28;19917;-64
2024/01/31 13:17:57;;;;;;;47.92;33.50;;;;;;;;;;5052064;28;20108;-64
2024/01/31 13:20:23;;;;;;;44.25;32.80;;;;;;;;;;5050414;28;20407;-64
2024/01/31 13:22:52;;;;;;;48.60;32.45;;;;;;;;;;5052186;28;20036;-64
2024/01/31 13:25:18;;;;;;;46.42;31.48;;;;;;;;;;5052115;28;20072;-64
2024/01/31 13:27:44;;;;;;;42.90;28.95;;;;;;;;;;5052089;28;20443;-64
2024/01/31 13:30:11;;;;;;;50.38;31.38;;;;;;;;;;5051926;28;20029;-65
2024/01/31 13:32:37;;;;;;;44.00;30.52;;;;;;;;;;5051922;28;20031;-64
2024/01/31 13:35:03;;;;;;;44.50;30.98;;;;;;;;;;5051860;28;20025;-64
2024/01/31 13:37:29;;;;;;;44.35;30.98;;;;;;;;;;5050412;28;20111;-63
2024/01/31 13:39:55;;;;;;;43.60;35.00;;;;;;;;;;5051779;28;20481;-65
2024/01/31 13:42:21;;;;;;;44.80;32.35;;;;;;;;;;5050352;28;20033;-63
2024/01/31 13:44:47;;;;;;;48.05;31.20;;;;;;;;;;5050119;28;20031;-63
2024/01/31 13:50:17;;;;;;;41.20;32.28;;;;;;;;;;5036963;28;20032;-64
2024/01/31 13:52:43;;;;;;;47.13;31.50;;;;;;;;;;5048548;28;20029;-63
2024/01/31 13:55:09;;;;;;;47.22;31.17;;;;;;;;;;5051666;28;20059;-62
2024/01/31 13:57:35;;;;;;;42.05;31.55;;;;;;;;;;5044906;28;20136;-65
2024/01/31 14:00:04;;;;;;;46.78;32.30;;;;;;;;;;5045736;28;20043;-63
2024/01/31 14:02:34;;;;;;;42.45;32.42;;;;;;;;;;5051344;28;20013;-58
2024/01/31 14:05:00;;;;;;;41.97;31.30;;;;;;;;;;5049602;28;20028;-61
2024/01/31 14:07:25;;;;;;;44.88;31.65;;;;;;;;;;5041994;28;20379;-62
2024/01/31 14:09:51;;;;;;;46.70;30.30;;;;;;;;;;5045916;28;20039;-62
2024/01/31 14:12:17;;;;;;;41.92;30.00;;;;;;;;;;5051493;28;20037;-66
2024/01/31 14:14:43;;;;;;;41.03;31.20;;;;;;;;;;5051579;28;20033;-66
2024/01/31 14:17:09;;;;;;;40.60;30.60;;;;;;;;;;5051495;28;20025;-64
2024/01/31 14:19:38;;;;;;;40.40;29.58;;;;;;;;;;5044549;28;20363;-73
2024/01/31 14:22:04;;;;;;;49.25;29.95;;;;;;;;;;5042769;28;20025;-62
2024/01/31 14:24:30;;;;;;;42.65;29.02;;;;;;;;;;5044766;28;20033;-62
2024/01/31 14:26:59;;;;;;;40.75;25.65;;;;;;;;;;5032630;28;20342;-62